createdAt,value
2018-12-17T00:00:47.721Z,26.53
2018-12-17T00:03:17.375Z,31.87
2018-12-17T00:05:47.153Z,30.53
2018-12-17T00:08:16.918Z,27.43
2018-12-17T00:10:44.480Z,31.97
2018-12-17T00:13:12.136Z,25.90
2018-12-17T00:15:40.062Z,27.77
2018-12-17T00:18:07.578Z,26.30
2018-12-17T00:20:35.130Z,23.40
2018-12-17T00:23:02.845Z,23.90
2018-12-17T00:25:32.543Z,35.13
2018-12-17T00:28:00.096Z,23.07
2018-12-17T00:30:27.989Z,30.33
2018-12-17T00:32:55.545Z,23.87
2018-12-17T00:35:23.140Z,22.40
2018-12-17T00:37:51.474Z,26.27
2018-12-17T00:40:19.233Z,23.20
2018-12-17T00:42:47.942Z,26.63
2018-12-17T00:45:15.514Z,29.03
2018-12-17T00:47:43.054Z,24.13
2018-12-17T00:50:10.692Z,25.67
2018-12-17T00:52:38.380Z,27.43
2018-12-17T00:55:06.076Z,22.87
2018-12-17T00:57:33.781Z,26.27
2018-12-17T01:00:01.457Z,25.37
2018-12-17T01:02:31.126Z,21.80
2018-12-17T01:04:59.462Z,27.93
2018-12-17T01:07:30.820Z,21.27
2018-12-17T01:09:58.538Z,23.83
2018-12-17T01:12:26.341Z,23.63
2018-12-17T01:14:54.022Z,24.53
2018-12-17T01:17:21.608Z,25.93
2018-12-17T01:19:49.250Z,25.00
2018-12-17T01:22:16.829Z,24.03
2018-12-17T01:24:44.495Z,25.97
2018-12-17T01:27:12.366Z,26.30
2018-12-17T01:29:39.935Z,21.40
2018-12-17T01:32:07.522Z,21.23
2018-12-17T01:34:35.089Z,20.93
2018-12-17T01:37:02.715Z,21.77
2018-12-17T01:39:30.597Z,18.23
2018-12-17T01:41:58.195Z,19.53
2018-12-17T01:44:25.763Z,23.37
2018-12-17T01:46:53.413Z,24.27
2018-12-17T01:49:20.944Z,22.37
2018-12-17T01:51:48.697Z,27.07
2018-12-17T01:54:16.488Z,22.20
2018-12-17T01:56:44.017Z,23.90
2018-12-17T01:59:11.530Z,22.93
2018-12-17T02:01:39.390Z,26.10
2018-12-17T02:04:07.099Z,28.47
2018-12-17T02:06:34.845Z,25.83
2018-12-17T02:09:03.387Z,26.43
2018-12-17T02:11:33.186Z,26.60
2018-12-17T02:14:01.107Z,24.73
2018-12-17T02:16:28.642Z,23.27
2018-12-17T02:18:56.644Z,26.97
2018-12-17T02:21:24.282Z,27.70
2018-12-17T02:23:51.972Z,35.47
2018-12-17T02:26:19.739Z,31.03
2018-12-17T02:28:47.466Z,32.33
2018-12-17T02:31:15.016Z,35.27
2018-12-17T02:33:42.839Z,32.13
2018-12-17T02:36:10.401Z,33.80
2018-12-17T02:38:37.899Z,37.23
2018-12-17T02:41:05.444Z,31.80
2018-12-17T02:43:35.108Z,33.00
2018-12-17T02:46:03.451Z,32.90
2018-12-17T02:48:31.273Z,26.47
2018-12-17T02:50:58.879Z,25.67
2018-12-17T02:53:26.471Z,22.00
2018-12-17T02:55:54.022Z,22.20
2018-12-17T02:58:21.586Z,21.83
2018-12-17T03:00:49.456Z,19.77
2018-12-17T03:03:17.012Z,20.33
2018-12-17T03:05:44.732Z,28.13
2018-12-17T03:08:12.331Z,28.50
2018-12-17T03:10:40.028Z,49.63
2018-12-17T03:13:07.621Z,24.43
2018-12-17T03:15:35.200Z,21.70
2018-12-17T03:18:04.433Z,41.97
2018-12-17T03:20:32.092Z,31.13
2018-12-17T03:22:59.673Z,19.70
2018-12-17T03:25:27.233Z,34.07
2018-12-17T03:27:54.981Z,28.17
2018-12-17T03:30:22.843Z,32.53
2018-12-17T03:32:50.559Z,33.13
2018-12-17T03:35:18.222Z,37.17
2018-12-17T03:37:45.789Z,19.53
2018-12-17T03:40:13.325Z,23.83
2018-12-17T03:42:41.114Z,35.60
2018-12-17T03:45:08.822Z,26.37
2018-12-17T03:47:37.717Z,35.50
2018-12-17T03:50:07.561Z,36.57
2018-12-17T03:52:36.187Z,25.40
2018-12-17T03:55:04.170Z,32.77
2018-12-17T03:57:31.724Z,26.87
2018-12-17T03:59:59.633Z,26.20
2018-12-17T04:02:27.274Z,25.40
2018-12-17T04:04:55.176Z,24.30
2018-12-17T04:07:22.995Z,29.70
2018-12-17T04:09:50.947Z,43.73
2018-12-17T04:12:18.750Z,28.87
2018-12-17T04:14:46.409Z,50.13
2018-12-17T04:17:14.105Z,25.73
2018-12-17T04:19:41.797Z,22.03
2018-12-17T04:22:09.406Z,24.73
2018-12-17T04:24:37.092Z,23.33
2018-12-17T04:27:04.770Z,19.87
2018-12-17T04:29:32.339Z,18.07
2018-12-17T04:32:00.008Z,21.50
2018-12-17T04:34:27.834Z,20.77
2018-12-17T04:36:55.521Z,24.83
2018-12-17T04:39:23.238Z,20.97
2018-12-17T04:41:51.024Z,19.57
2018-12-17T04:44:18.610Z,18.57
2018-12-17T04:46:46.530Z,21.73
2018-12-17T04:49:14.160Z,17.40
2018-12-17T04:51:41.964Z,18.00
2018-12-17T04:54:09.505Z,19.40
2018-12-17T04:56:37.120Z,17.90
2018-12-17T04:59:04.908Z,18.30
2018-12-17T05:01:32.863Z,17.33
2018-12-17T05:04:00.448Z,19.83
2018-12-17T05:06:28.082Z,15.00
2018-12-17T05:08:55.635Z,18.43
2018-12-17T05:11:23.108Z,18.60
2018-12-17T05:13:51.016Z,17.10
2018-12-17T05:16:18.615Z,20.43
2018-12-17T05:18:46.272Z,18.50
2018-12-17T05:21:13.876Z,14.20
2018-12-17T05:23:41.684Z,17.97
2018-12-17T05:26:09.290Z,21.20
2018-12-17T05:28:36.878Z,16.90
2018-12-17T05:31:04.451Z,17.43
2018-12-17T05:33:31.973Z,17.50
2018-12-17T05:36:00.073Z,17.50
2018-12-17T05:38:27.581Z,20.17
2018-12-17T05:40:55.873Z,21.90
2018-12-17T05:43:23.506Z,21.93
2018-12-17T05:45:51.137Z,27.00
2018-12-17T05:48:18.858Z,26.93
2018-12-17T05:50:47.428Z,23.03
2018-12-17T05:53:15.045Z,23.20
2018-12-17T05:55:44.230Z,23.67
2018-12-17T05:58:12.014Z,26.07
2018-12-17T06:00:39.556Z,24.10
2018-12-17T06:03:07.185Z,24.50
2018-12-17T06:05:34.932Z,29.33
2018-12-17T06:08:02.744Z,23.83
2018-12-17T06:10:30.455Z,23.33
2018-12-17T06:12:58.066Z,23.73
2018-12-17T06:15:25.986Z,18.07
2018-12-17T06:17:54.412Z,20.10
2018-12-17T06:20:22.735Z,19.40
2018-12-17T06:22:50.694Z,15.70
2018-12-17T06:25:18.462Z,20.50
2018-12-17T06:27:46.389Z,18.30
2018-12-17T06:30:14.120Z,16.30
2018-12-17T06:32:41.691Z,26.33
2018-12-17T06:35:09.202Z,21.27
2018-12-17T06:37:37.555Z,25.20
2018-12-17T06:40:10.137Z,24.70
2018-12-17T06:42:35.182Z,21.00
2018-12-17T06:45:03.362Z,18.87
2018-12-17T06:47:30.899Z,17.93
2018-12-17T06:49:58.456Z,18.17
2018-12-17T06:52:26.069Z,18.93
2018-12-17T06:54:54.970Z,18.00
2018-12-17T06:57:23.022Z,16.73
2018-12-17T06:59:50.835Z,23.00
2018-12-17T07:02:18.730Z,24.27
2018-12-17T07:04:46.287Z,19.53
2018-12-17T07:07:14.035Z,23.63
2018-12-17T07:09:41.752Z,20.27
2018-12-17T07:12:09.355Z,18.83
2018-12-17T07:14:36.939Z,27.50
2018-12-17T07:17:04.490Z,26.43
2018-12-17T07:19:32.060Z,22.80
2018-12-17T07:21:59.654Z,24.17
2018-12-17T07:24:27.158Z,29.63
2018-12-17T07:26:54.735Z,21.93
2018-12-17T07:29:22.304Z,25.03
2018-12-17T07:31:50.062Z,21.77
2018-12-17T07:34:17.724Z,27.13
2018-12-17T07:36:45.246Z,24.57
2018-12-17T07:39:12.802Z,25.07
2018-12-17T07:41:40.393Z,26.23
2018-12-17T07:44:07.924Z,25.67
2018-12-17T07:46:35.487Z,25.77
2018-12-17T07:49:03.131Z,27.20
2018-12-17T07:51:31.803Z,26.70
2018-12-17T07:53:59.363Z,28.37
2018-12-17T07:56:27.127Z,29.43
2018-12-17T07:58:54.802Z,28.47
2018-12-17T08:01:22.503Z,26.27
2018-12-17T08:03:50.269Z,31.87
2018-12-17T08:06:17.862Z,31.57
2018-12-17T08:08:45.598Z,32.23
2018-12-17T08:11:13.318Z,29.70
2018-12-17T08:13:42.661Z,37.40
2018-12-17T08:16:10.527Z,46.53
2018-12-17T08:18:38.157Z,42.07
2018-12-17T08:21:05.725Z,35.10
2018-12-17T08:23:33.286Z,25.17
2018-12-17T08:26:00.916Z,25.93
2018-12-17T08:28:28.916Z,19.10
2018-12-17T08:30:56.756Z,22.60
2018-12-17T08:33:24.443Z,20.27
2018-12-17T08:35:51.991Z,19.33
2018-12-17T08:38:19.548Z,19.40
2018-12-17T08:40:47.165Z,20.93
2018-12-17T08:43:14.645Z,18.90
2018-12-17T08:45:42.190Z,19.43
2018-12-17T08:48:09.891Z,16.37
2018-12-17T08:50:37.470Z,15.93
2018-12-17T08:53:05.216Z,18.00
2018-12-17T08:55:32.846Z,20.03
2018-12-17T08:58:00.558Z,18.00
2018-12-17T09:00:28.169Z,15.17
2018-12-17T09:02:55.844Z,17.77
2018-12-17T09:05:23.434Z,19.87
2018-12-17T09:07:52.492Z,16.90
2018-12-17T09:10:20.078Z,20.20
2018-12-17T09:12:47.686Z,20.53
2018-12-17T09:15:15.507Z,18.70
2018-12-17T09:17:43.122Z,21.63
2018-12-17T09:20:10.848Z,17.37
2018-12-17T09:22:38.737Z,17.50
2018-12-17T09:25:06.808Z,17.80
2018-12-17T09:27:34.528Z,19.53
2018-12-17T09:30:02.638Z,22.83
2018-12-17T09:32:32.166Z,20.00
2018-12-17T09:34:59.775Z,23.33
2018-12-17T09:37:27.534Z,22.03
2018-12-17T09:39:55.101Z,23.77
2018-12-17T09:42:22.640Z,23.33
2018-12-17T09:44:50.319Z,23.63
2018-12-17T09:47:18.173Z,21.33
2018-12-17T09:49:46.045Z,19.93
2018-12-17T09:52:13.613Z,20.80
2018-12-17T09:54:41.174Z,18.10
2018-12-17T09:57:08.764Z,24.20
2018-12-17T09:59:36.303Z,19.37
2018-12-17T10:02:03.890Z,18.00
2018-12-17T10:04:31.946Z,20.03
2018-12-17T10:06:59.536Z,18.33
2018-12-17T10:09:27.324Z,21.43
2018-12-17T10:11:54.925Z,30.57
2018-12-17T10:14:22.561Z,19.03
2018-12-17T10:16:50.315Z,14.53
2018-12-17T10:19:17.881Z,14.37
2018-12-17T10:21:45.529Z,12.73
2018-12-17T10:24:13.248Z,16.13
2018-12-17T10:26:40.909Z,17.73
2018-12-17T10:29:09.111Z,13.13
2018-12-17T10:31:36.826Z,24.80
2018-12-17T10:34:04.462Z,19.90
2018-12-17T10:36:32.227Z,15.43
2018-12-17T10:38:59.853Z,13.23
2018-12-17T10:41:27.533Z,18.10
2018-12-17T10:43:57.191Z,20.17
2018-12-17T10:46:24.739Z,14.47
2018-12-17T10:48:52.376Z,13.47
2018-12-17T10:51:21.125Z,13.90
2018-12-17T10:53:48.746Z,18.47
2018-12-17T10:56:16.338Z,17.80
2018-12-17T10:58:43.901Z,12.20
2018-12-17T11:01:17.161Z,12.97
2018-12-17T11:03:49.211Z,14.40
2018-12-17T11:06:20.041Z,11.20
2018-12-17T11:08:49.805Z,13.53
2018-12-17T11:11:17.820Z,11.70
2018-12-17T11:13:45.936Z,13.40
2018-12-17T11:16:13.599Z,12.57
2018-12-17T11:18:41.205Z,17.67
2018-12-17T11:21:08.779Z,11.07
2018-12-17T11:23:36.339Z,12.03
2018-12-17T11:26:03.981Z,12.67
2018-12-17T11:28:31.713Z,11.30
2018-12-17T11:30:59.529Z,13.47
2018-12-17T11:33:27.209Z,13.33
2018-12-17T11:35:54.932Z,13.77
2018-12-17T11:38:22.494Z,14.70
2018-12-17T11:40:50.185Z,14.93
2018-12-17T11:43:17.785Z,12.27
2018-12-17T11:45:45.569Z,11.53
2018-12-17T11:48:13.191Z,10.03
2018-12-17T11:50:40.850Z,14.60
2018-12-17T11:53:08.570Z,12.07
2018-12-17T11:55:36.465Z,12.50
2018-12-17T11:58:11.882Z,12.13
2018-12-17T12:00:53.638Z,16.27
2018-12-17T12:03:17.866Z,13.33
2018-12-17T12:05:45.540Z,12.77
2018-12-17T12:08:13.246Z,15.70
2018-12-17T12:10:41.950Z,11.27
2018-12-17T12:13:09.629Z,10.80
2018-12-17T12:15:37.209Z,11.47
2018-12-17T12:18:04.778Z,11.87
2018-12-17T12:20:32.354Z,15.83
2018-12-17T12:22:59.896Z,11.23
2018-12-17T12:25:27.564Z,9.73
2018-12-17T12:27:55.338Z,11.40
2018-12-17T12:30:22.955Z,9.73
2018-12-17T12:32:50.992Z,9.43
2018-12-17T12:35:18.783Z,11.73
2018-12-17T12:37:46.302Z,8.93
2018-12-17T12:40:14.181Z,9.90
2018-12-17T12:42:41.719Z,7.50
2018-12-17T12:45:09.450Z,13.57
2018-12-17T12:47:37.190Z,18.27
2018-12-17T12:50:05.936Z,14.57
2018-12-17T12:52:33.619Z,11.63
2018-12-17T12:55:01.170Z,7.77
2018-12-17T12:57:28.932Z,10.13
2018-12-17T12:59:56.476Z,7.57
2018-12-17T13:02:24.085Z,10.13
2018-12-17T13:04:51.668Z,10.27
2018-12-17T13:07:19.260Z,8.20
2018-12-17T13:09:46.779Z,10.40
2018-12-17T13:12:14.412Z,7.67
2018-12-17T13:14:42.013Z,8.73
2018-12-17T13:17:15.444Z,10.83
2018-12-17T13:19:43.037Z,10.50
2018-12-17T13:22:10.601Z,12.37
2018-12-17T13:24:38.411Z,9.43
2018-12-17T13:27:05.963Z,11.10
2018-12-17T13:29:33.814Z,9.27
2018-12-17T13:32:01.427Z,9.00
2018-12-17T13:34:29.204Z,7.50
2018-12-17T13:36:57.746Z,9.60
2018-12-17T13:39:25.476Z,9.33
2018-12-17T13:41:53.154Z,9.63
2018-12-17T13:44:20.910Z,8.00
2018-12-17T13:46:48.437Z,10.53
2018-12-17T13:49:16.349Z,10.70
2018-12-17T13:51:49.494Z,10.40
2018-12-17T13:54:17.466Z,8.70
2018-12-17T13:56:45.160Z,8.27
2018-12-17T13:59:12.791Z,8.00
2018-12-17T14:01:40.323Z,5.37
2018-12-17T14:04:08.256Z,8.30
2018-12-17T14:06:36.565Z,6.20
2018-12-17T14:09:06.031Z,5.83
2018-12-17T14:11:35.968Z,6.37
2018-12-17T14:14:03.718Z,5.90
2018-12-17T14:16:36.848Z,4.20
2018-12-17T14:19:10.067Z,2.63
2018-12-17T14:21:43.234Z,5.77
2018-12-17T14:24:11.052Z,4.00
2018-12-17T14:26:38.751Z,3.37
2018-12-17T14:29:06.338Z,6.13
2018-12-17T14:31:33.891Z,2.50
2018-12-17T14:34:01.620Z,3.33
2018-12-17T14:36:29.202Z,3.80
2018-12-17T14:38:56.828Z,2.50
2018-12-17T14:41:24.389Z,2.73
2018-12-17T14:43:54.036Z,2.67
2018-12-17T14:46:21.596Z,1.83
2018-12-17T14:48:49.108Z,1.37
2018-12-17T14:51:16.980Z,1.50
2018-12-17T14:53:44.694Z,4.23
2018-12-17T14:56:12.585Z,3.33
2018-12-17T14:58:44.450Z,4.80
2018-12-17T15:01:09.792Z,4.00
2018-12-17T15:03:37.794Z,3.67
2018-12-17T15:06:05.336Z,3.63
2018-12-17T15:08:32.972Z,3.93
2018-12-17T15:11:00.558Z,4.47
2018-12-17T15:13:28.387Z,3.33
2018-12-17T15:15:56.287Z,2.80
2018-12-17T15:18:23.889Z,5.63
2018-12-17T15:20:51.880Z,4.67
2018-12-17T15:23:19.648Z,4.57
2018-12-17T15:25:47.520Z,10.43
2018-12-17T15:28:15.094Z,9.77
2018-12-17T15:30:42.873Z,16.43
2018-12-17T15:33:10.766Z,13.90
2018-12-17T15:35:38.319Z,17.53
2018-12-17T15:38:05.992Z,15.13
2018-12-17T15:40:33.857Z,12.67
2018-12-17T15:43:01.442Z,7.10
2018-12-17T15:45:29.062Z,4.27
2018-12-17T15:47:56.694Z,4.03
2018-12-17T15:50:30.922Z,2.57
2018-12-17T15:52:58.489Z,2.80
2018-12-17T15:55:25.974Z,4.73
2018-12-17T15:57:53.780Z,4.30
2018-12-17T16:00:21.350Z,3.03
2018-12-17T16:02:48.899Z,2.73
2018-12-17T16:05:16.506Z,3.87
2018-12-17T16:07:44.069Z,3.83
2018-12-17T16:10:11.974Z,3.60
2018-12-17T16:12:39.509Z,3.97
2018-12-17T16:15:07.350Z,6.70
2018-12-17T16:17:35.401Z,5.03
2018-12-17T16:20:03.508Z,4.30
2018-12-17T16:22:31.554Z,4.67
2018-12-17T16:24:59.389Z,3.97
2018-12-17T16:27:26.956Z,4.60
2018-12-17T16:29:54.606Z,8.37
2018-12-17T16:32:22.160Z,8.70
2018-12-17T16:34:49.680Z,9.57
2018-12-17T16:37:17.395Z,4.27
2018-12-17T16:39:44.970Z,4.77
2018-12-17T16:42:12.557Z,5.90
2018-12-17T16:44:40.240Z,6.70
2018-12-17T16:47:07.870Z,7.27
2018-12-17T16:49:35.518Z,6.60
2018-12-17T16:52:03.155Z,11.47
2018-12-17T16:54:30.707Z,13.77
2018-12-17T16:56:58.322Z,6.07
2018-12-17T16:59:26.255Z,3.57
2018-12-17T17:01:53.803Z,4.03
2018-12-17T17:04:21.516Z,8.13
2018-12-17T17:06:49.090Z,7.53
2018-12-17T17:09:17.647Z,4.13
2018-12-17T17:11:45.448Z,5.07
2018-12-17T17:14:13.050Z,4.80
2018-12-17T17:16:40.738Z,6.37
2018-12-17T17:19:08.333Z,7.77
2018-12-17T17:21:36.584Z,5.93
2018-12-17T17:24:04.137Z,6.97
2018-12-17T17:26:31.809Z,6.43
2018-12-17T17:29:02.595Z,5.73
2018-12-17T17:31:30.160Z,6.17
2018-12-17T17:33:57.670Z,9.53
2018-12-17T17:36:25.194Z,11.23
2018-12-17T17:38:53.841Z,6.67
2018-12-17T17:41:21.576Z,30.43
2018-12-17T17:43:49.190Z,13.33
2018-12-17T17:46:16.708Z,10.43
2018-12-17T17:48:44.347Z,8.90
2018-12-17T17:51:12.158Z,10.03
2018-12-17T17:53:39.814Z,9.40
2018-12-17T17:56:07.425Z,13.67
2018-12-17T17:58:35.161Z,11.00
2018-12-17T18:01:03.182Z,8.23
2018-12-17T18:03:30.702Z,8.17
2018-12-17T18:05:58.232Z,20.43
2018-12-17T18:08:27.046Z,8.00
2018-12-17T18:10:54.909Z,8.37
2018-12-17T18:13:22.462Z,8.13
2018-12-17T18:15:50.031Z,6.37
2018-12-17T18:18:17.719Z,6.87
2018-12-17T18:20:45.320Z,11.03
2018-12-17T18:23:13.236Z,12.43
2018-12-17T18:25:42.172Z,10.40
2018-12-17T18:28:10.824Z,13.53
2018-12-17T18:30:38.424Z,11.43
2018-12-17T18:33:05.943Z,11.27
2018-12-17T18:35:33.814Z,8.40
2018-12-17T18:38:01.647Z,8.70
2018-12-17T18:40:29.641Z,9.40
2018-12-17T18:42:57.219Z,60.17
2018-12-17T18:45:24.837Z,87.23
2018-12-17T18:47:52.558Z,96.80
2018-12-17T18:50:20.459Z,140.93
2018-12-17T18:52:48.126Z,411.30
2018-12-17T18:55:15.678Z,262.10
2018-12-17T18:57:43.238Z,33.23
2018-12-17T19:00:11.326Z,18.10
2018-12-17T19:02:39.487Z,10.57
2018-12-17T19:05:07.222Z,11.60
2018-12-17T19:07:35.155Z,8.43
2018-12-17T19:10:03.777Z,8.50
2018-12-17T19:12:31.561Z,11.83
2018-12-17T19:14:59.187Z,11.60
2018-12-17T19:17:26.699Z,10.70
2018-12-17T19:19:54.598Z,12.50
2018-12-17T19:22:23.487Z,11.93
2018-12-17T19:24:51.386Z,12.73
2018-12-17T19:27:19.005Z,18.27
2018-12-17T19:29:46.806Z,19.43
2018-12-17T19:32:14.752Z,13.67
2018-12-17T19:34:42.351Z,14.03
2018-12-17T19:37:10.082Z,17.10
2018-12-17T19:39:37.933Z,12.40
2018-12-17T19:42:05.556Z,12.27
2018-12-17T19:44:33.118Z,13.30
2018-12-17T19:47:00.613Z,14.83
2018-12-17T19:49:28.298Z,15.80
2018-12-17T19:51:55.812Z,13.20
2018-12-17T19:54:23.358Z,16.77
2018-12-17T19:56:51.054Z,14.07
2018-12-17T19:59:18.605Z,16.00
2018-12-17T20:01:46.363Z,12.53
2018-12-17T20:04:14.029Z,14.07
2018-12-17T20:06:41.670Z,13.20
2018-12-17T20:09:09.211Z,13.80
2018-12-17T20:11:37.932Z,15.10
2018-12-17T20:14:05.579Z,14.83
2018-12-17T20:16:33.306Z,12.93
2018-12-17T20:19:00.853Z,18.67
2018-12-17T20:21:28.581Z,17.70
2018-12-17T20:23:56.134Z,15.43
2018-12-17T20:26:23.676Z,17.10
2018-12-17T20:28:51.658Z,18.30
2018-12-17T20:31:19.247Z,14.50
2018-12-17T20:33:46.938Z,13.40
2018-12-17T20:36:14.642Z,15.13
2018-12-17T20:38:42.154Z,13.43
2018-12-17T20:41:09.724Z,13.80
2018-12-17T20:43:37.433Z,17.90
2018-12-17T20:46:04.982Z,21.43
2018-12-17T20:48:32.486Z,17.33
2018-12-17T20:51:00.092Z,15.10
2018-12-17T20:53:27.951Z,17.97
2018-12-17T20:55:55.544Z,17.40
2018-12-17T20:58:23.106Z,16.13
2018-12-17T21:00:51.002Z,14.43
2018-12-17T21:03:18.731Z,15.03
2018-12-17T21:05:46.278Z,14.50
2018-12-17T21:08:13.859Z,12.90
2018-12-17T21:10:41.520Z,15.50
2018-12-17T21:13:09.053Z,12.87
2018-12-17T21:15:36.628Z,16.13
2018-12-17T21:18:04.195Z,19.97
2018-12-17T21:20:31.696Z,11.13
2018-12-17T21:22:59.368Z,14.20
2018-12-17T21:25:26.945Z,12.20
2018-12-17T21:27:54.602Z,13.53
2018-12-17T21:30:22.169Z,20.37
2018-12-17T21:32:49.995Z,14.77
2018-12-17T21:35:17.584Z,13.03
2018-12-17T21:37:45.152Z,14.53
2018-12-17T21:40:12.726Z,12.17
2018-12-17T21:42:40.532Z,12.60
2018-12-17T21:45:08.176Z,14.57
2018-12-17T21:47:35.861Z,14.63
2018-12-17T21:50:04.604Z,12.40
2018-12-17T21:52:32.311Z,14.93
2018-12-17T21:55:00.050Z,11.63
2018-12-17T21:57:27.595Z,14.73
2018-12-17T21:59:55.175Z,13.53
2018-12-17T22:02:22.828Z,13.60
2018-12-17T22:04:50.586Z,12.67
2018-12-17T22:07:18.242Z,15.13
2018-12-17T22:09:46.035Z,17.63
2018-12-17T22:12:13.930Z,21.80
2018-12-17T22:14:41.663Z,17.00
2018-12-17T22:17:09.319Z,16.33
2018-12-17T22:19:37.094Z,13.67
2018-12-17T22:22:04.994Z,13.57
2018-12-17T22:24:32.614Z,15.27
2018-12-17T22:27:00.249Z,15.17
2018-12-17T22:29:27.939Z,13.37
2018-12-17T22:31:55.682Z,13.83
2018-12-17T22:34:23.344Z,14.50
2018-12-17T22:36:51.250Z,15.97
2018-12-17T22:39:18.909Z,17.10
2018-12-17T22:41:46.435Z,18.00
2018-12-17T22:44:14.068Z,13.63
2018-12-17T22:46:41.706Z,16.37
2018-12-17T22:49:09.567Z,16.73
2018-12-17T22:51:37.645Z,14.27
2018-12-17T22:54:05.375Z,17.00
2018-12-17T22:56:32.936Z,17.17
2018-12-17T22:59:00.630Z,15.63
2018-12-17T23:01:28.400Z,21.93
2018-12-17T23:03:56.167Z,14.13
2018-12-17T23:06:23.865Z,14.43
2018-12-17T23:09:01.653Z,12.43
2018-12-17T23:11:48.598Z,13.87
2018-12-17T23:14:27.538Z,14.17
2018-12-17T23:17:07.735Z,12.27
2018-12-17T23:19:45.670Z,12.87
2018-12-17T23:22:15.503Z,16.03
2018-12-17T23:24:45.114Z,10.53
2018-12-17T23:27:13.048Z,15.83
2018-12-17T23:29:41.012Z,14.10
2018-12-17T23:32:08.535Z,12.23
2018-12-17T23:34:37.426Z,12.67
2018-12-17T23:37:04.955Z,11.07
2018-12-17T23:39:32.503Z,16.30
2018-12-17T23:42:00.085Z,17.87
2018-12-17T23:44:27.871Z,17.10
2018-12-17T23:46:55.418Z,15.07
2018-12-17T23:49:22.930Z,13.73
2018-12-17T23:51:50.482Z,15.97
2018-12-17T23:54:18.072Z,16.00
2018-12-17T23:56:45.834Z,11.37
2018-12-17T23:59:13.437Z,13.70
